createdAt,value
2022-11-15T00:00:59.552Z,30.50
2022-11-15T00:03:28.666Z,29.20
2022-11-15T00:05:55.718Z,31.90
2022-11-15T00:08:22.354Z,30.75
2022-11-15T00:11:00.235Z,30.00
2022-11-15T00:13:27.617Z,31.40
2022-11-15T00:15:57.971Z,31.05
2022-11-15T00:18:24.470Z,29.98
2022-11-15T00:20:50.900Z,30.52
2022-11-15T00:23:17.465Z,30.40
2022-11-15T00:25:43.861Z,30.40
2022-11-15T00:28:10.284Z,29.55
2022-11-15T00:30:36.739Z,30.48
2022-11-15T00:33:07.263Z,28.98
2022-11-15T00:35:35.121Z,31.23
2022-11-15T00:38:02.802Z,29.02
2022-11-15T00:40:29.650Z,29.88
2022-11-15T00:42:56.407Z,32.03
2022-11-15T00:45:23.307Z,30.13
2022-11-15T00:47:49.725Z,29.23
2022-11-15T00:50:16.402Z,28.55
2022-11-15T00:52:43.141Z,28.10
2022-11-15T00:55:19.936Z,29.98
2022-11-15T00:57:47.510Z,26.15
2022-11-15T01:00:14.170Z,25.85
2022-11-15T01:02:40.594Z,27.10
2022-11-15T01:05:07.669Z,25.00
2022-11-15T01:07:34.290Z,27.30
2022-11-15T01:10:00.851Z,25.60
2022-11-15T01:12:27.240Z,27.10
2022-11-15T01:14:53.632Z,25.77
2022-11-15T01:17:20.597Z,25.90
2022-11-15T01:19:47.005Z,26.05
2022-11-15T01:22:13.467Z,24.52
2022-11-15T01:24:39.980Z,25.25
2022-11-15T01:27:06.704Z,27.02
2022-11-15T01:29:33.173Z,24.55
2022-11-15T01:31:59.666Z,22.95
2022-11-15T01:34:26.090Z,24.75
2022-11-15T01:36:52.550Z,23.67
2022-11-15T01:39:19.005Z,24.73
2022-11-15T01:41:45.529Z,23.25
2022-11-15T01:44:38.682Z,24.40
2022-11-15T01:47:13.106Z,23.90
2022-11-15T01:49:47.129Z,26.88
2022-11-15T01:52:18.824Z,25.08
2022-11-15T01:54:46.617Z,26.33
2022-11-15T01:57:14.256Z,25.65
2022-11-15T01:59:43.308Z,26.85
2022-11-15T02:02:09.871Z,26.00
2022-11-15T02:04:41.335Z,28.15
2022-11-15T02:07:10.809Z,26.27
2022-11-15T02:09:38.560Z,23.73
2022-11-15T02:12:06.063Z,25.27
2022-11-15T02:14:33.268Z,25.50
2022-11-15T02:17:11.852Z,26.63
2022-11-15T02:20:10.737Z,26.08
2022-11-15T02:23:02.587Z,25.52
2022-11-15T02:28:47.816Z,24.63
2022-11-15T02:31:32.662Z,25.35
2022-11-15T02:34:26.058Z,25.85
2022-11-15T02:36:55.315Z,26.60
2022-11-15T02:39:33.856Z,30.17
2022-11-15T02:42:05.431Z,30.58
2022-11-15T02:47:13.543Z,24.38
2022-11-15T02:49:52.642Z,25.08
2022-11-15T02:52:22.008Z,26.80
2022-11-15T02:55:02.196Z,28.92
2022-11-15T02:57:34.444Z,29.40
2022-11-15T03:00:04.438Z,28.20
2022-11-15T03:02:42.865Z,26.15
2022-11-15T03:05:46.328Z,29.38
2022-11-15T03:08:43.868Z,28.63
2022-11-15T03:11:14.430Z,28.15
2022-11-15T03:13:45.857Z,28.83
2022-11-15T03:16:29.214Z,25.65
2022-11-15T03:19:15.084Z,23.40
2022-11-15T03:21:42.057Z,21.85
2022-11-15T03:24:09.661Z,24.05
2022-11-15T03:26:39.699Z,22.23
2022-11-15T03:29:12.535Z,22.02
2022-11-15T03:31:51.143Z,25.65
2022-11-15T03:34:23.700Z,25.77
2022-11-15T03:36:51.914Z,22.92
2022-11-15T03:39:20.749Z,22.65
2022-11-15T03:42:06.077Z,22.83
2022-11-15T03:44:48.101Z,23.27
2022-11-15T03:47:22.435Z,23.52
2022-11-15T03:50:03.173Z,22.98
2022-11-15T03:52:33.830Z,23.73
2022-11-15T03:55:02.490Z,23.40
2022-11-15T03:57:28.986Z,25.70
2022-11-15T03:59:55.492Z,25.45
2022-11-15T04:02:21.973Z,26.05
2022-11-15T04:04:48.386Z,27.88
2022-11-15T04:07:14.933Z,28.38
2022-11-15T04:10:00.384Z,25.27
2022-11-15T04:12:32.532Z,25.80
2022-11-15T04:15:11.503Z,26.85
2022-11-15T04:17:39.328Z,25.60
2022-11-15T04:20:30.136Z,24.58
2022-11-15T04:23:16.409Z,26.67
2022-11-15T04:25:44.173Z,23.20
2022-11-15T04:28:11.383Z,23.10
2022-11-15T04:30:37.923Z,23.65
2022-11-15T04:33:04.553Z,21.38
2022-11-15T04:35:31.485Z,23.40
2022-11-15T04:37:58.882Z,23.92
2022-11-15T04:40:25.353Z,20.67
2022-11-15T04:42:51.791Z,21.60
2022-11-15T04:45:18.301Z,21.48
2022-11-15T04:47:46.270Z,21.27
2022-11-15T04:50:14.334Z,21.63
2022-11-15T04:52:43.152Z,23.67
2022-11-15T04:55:12.776Z,23.67
2022-11-15T04:57:39.399Z,25.55
2022-11-15T05:00:07.975Z,26.35
2022-11-15T05:02:53.201Z,26.35
2022-11-15T05:05:19.670Z,25.95
2022-11-15T05:07:46.124Z,25.17
2022-11-15T05:10:12.597Z,24.80
2022-11-15T05:12:39.262Z,23.98
2022-11-15T05:15:06.233Z,23.05
2022-11-15T05:17:32.759Z,23.65
2022-11-15T05:19:59.186Z,22.60
2022-11-15T05:22:25.591Z,24.08
2022-11-15T05:24:52.028Z,22.50
2022-11-15T05:27:18.578Z,26.25
2022-11-15T05:29:44.965Z,26.33
2022-11-15T05:32:12.721Z,25.05
2022-11-15T05:34:39.444Z,26.70
2022-11-15T05:37:06.110Z,27.15
2022-11-15T05:39:32.576Z,29.15
2022-11-15T05:42:06.132Z,27.50
2022-11-15T05:44:33.217Z,27.40
2022-11-15T05:46:59.755Z,26.17
2022-11-15T05:49:31.372Z,26.45
2022-11-15T05:54:25.889Z,25.83
2022-11-15T05:56:53.018Z,26.52
2022-11-15T05:59:19.866Z,25.33
2022-11-15T06:01:46.418Z,26.50
2022-11-15T06:04:13.018Z,26.67
2022-11-15T06:06:39.624Z,26.25
2022-11-15T06:09:06.079Z,24.10
2022-11-15T06:11:32.495Z,24.98
2022-11-15T06:13:58.912Z,22.85
2022-11-15T06:16:25.324Z,23.83
2022-11-15T06:18:51.746Z,22.90
2022-11-15T06:21:18.164Z,26.80
2022-11-15T06:23:44.608Z,26.65
2022-11-15T06:26:11.036Z,23.35
2022-11-15T06:28:37.497Z,24.23
2022-11-15T06:31:14.283Z,26.00
2022-11-15T06:33:41.293Z,25.55
2022-11-15T06:36:17.081Z,25.38
2022-11-15T06:38:45.500Z,26.73
2022-11-15T06:41:13.244Z,23.83
2022-11-15T06:43:40.248Z,25.02
2022-11-15T06:46:07.724Z,26.48
2022-11-15T06:48:34.764Z,26.15
2022-11-15T06:51:03.046Z,24.58
2022-11-15T06:53:31.581Z,31.15
2022-11-15T06:56:06.963Z,33.13
2022-11-15T06:58:33.846Z,28.30
2022-11-15T07:01:03.364Z,24.00
2022-11-15T07:03:30.528Z,24.90
2022-11-15T07:06:02.736Z,24.38
2022-11-15T07:08:32.213Z,26.58
2022-11-15T07:11:01.329Z,26.42
2022-11-15T07:13:29.169Z,26.90
2022-11-15T07:15:56.295Z,24.10
2022-11-15T07:18:22.743Z,26.13
2022-11-15T07:20:49.212Z,26.45
2022-11-15T07:23:15.687Z,26.35
2022-11-15T07:25:42.187Z,26.60
2022-11-15T07:28:08.775Z,40.95
2022-11-15T07:30:35.319Z,32.83
2022-11-15T07:33:01.825Z,26.90
2022-11-15T07:35:29.508Z,25.27
2022-11-15T07:38:03.678Z,25.70
2022-11-15T07:40:32.554Z,25.38
2022-11-15T07:43:03.651Z,28.60
2022-11-15T07:45:30.095Z,27.83
2022-11-15T07:47:57.271Z,27.70
2022-11-15T07:50:24.882Z,27.48
2022-11-15T07:52:58.755Z,28.08
2022-11-15T07:55:27.979Z,27.83
2022-11-15T07:58:00.546Z,28.60
2022-11-15T08:00:26.980Z,26.95
2022-11-15T08:02:53.522Z,27.58
2022-11-15T08:05:20.061Z,37.63
2022-11-15T08:07:46.530Z,35.60
2022-11-15T08:10:12.988Z,27.17
2022-11-15T08:12:39.505Z,27.25
2022-11-15T08:15:06.596Z,27.92
2022-11-15T08:17:33.792Z,27.40
2022-11-15T08:20:00.219Z,28.67
2022-11-15T08:22:26.646Z,28.63
2022-11-15T08:24:53.081Z,27.80
2022-11-15T08:27:19.628Z,27.35
2022-11-15T08:29:47.132Z,27.67
2022-11-15T08:32:13.648Z,28.10
2022-11-15T08:34:40.226Z,30.10
2022-11-15T08:37:06.750Z,27.98
2022-11-15T08:39:33.212Z,30.83
2022-11-15T08:41:59.660Z,27.73
2022-11-15T08:44:26.098Z,32.50
2022-11-15T08:46:52.618Z,30.08
2022-11-15T08:49:19.340Z,27.08
2022-11-15T08:51:46.174Z,30.35
2022-11-15T08:54:12.604Z,29.33
2022-11-15T08:56:39.023Z,28.15
2022-11-15T08:59:05.536Z,26.77
2022-11-15T09:01:33.477Z,28.65
2022-11-15T09:04:00.062Z,28.33
2022-11-15T09:06:26.517Z,28.98
2022-11-15T09:08:53.254Z,27.50
2022-11-15T09:11:22.238Z,30.33
2022-11-15T09:13:48.669Z,29.52
2022-11-15T09:16:16.221Z,28.02
2022-11-15T09:18:42.901Z,29.25
2022-11-15T09:21:10.431Z,30.20
2022-11-15T09:23:36.928Z,30.45
2022-11-15T09:26:05.567Z,28.30
2022-11-15T09:28:33.953Z,31.02
2022-11-15T09:31:02.779Z,30.10
2022-11-15T09:33:29.581Z,29.70
2022-11-15T09:36:10.145Z,31.48
2022-11-15T09:38:36.749Z,28.80
2022-11-15T09:41:15.221Z,28.70
2022-11-15T09:44:00.484Z,28.48
2022-11-15T09:46:32.832Z,28.92
2022-11-15T09:49:02.533Z,28.20
2022-11-15T09:51:34.342Z,28.92
2022-11-15T09:57:21.323Z,27.17
2022-11-15T09:59:56.652Z,27.88
2022-11-15T10:02:53.428Z,26.63
2022-11-15T10:05:23.783Z,28.27
2022-11-15T10:08:07.392Z,28.05
2022-11-15T10:10:44.554Z,27.63
2022-11-15T10:13:19.747Z,26.45
2022-11-15T10:15:49.321Z,27.10
2022-11-15T10:18:20.542Z,26.83
2022-11-15T10:20:54.938Z,26.08
2022-11-15T10:23:23.897Z,25.75
2022-11-15T10:26:03.656Z,24.08
2022-11-15T10:28:33.219Z,25.25
2022-11-15T10:31:02.023Z,27.50
2022-11-15T10:33:37.193Z,25.63
2022-11-15T10:36:09.671Z,26.23
2022-11-15T10:38:51.106Z,24.42
2022-11-15T10:41:23.980Z,24.85
2022-11-15T10:44:12.209Z,25.70
2022-11-15T10:46:48.373Z,26.35
2022-11-15T10:49:19.344Z,26.15
2022-11-15T10:51:47.895Z,26.27
2022-11-15T10:54:38.675Z,25.90
2022-11-15T10:57:15.109Z,24.60
2022-11-15T10:59:47.564Z,26.40
2022-11-15T11:02:36.790Z,25.40
2022-11-15T11:05:06.353Z,24.48
2022-11-15T11:07:35.769Z,26.63
2022-11-15T11:10:49.890Z,25.52
2022-11-15T11:13:22.561Z,27.27
2022-11-15T11:16:14.091Z,27.65
2022-11-15T11:18:55.362Z,27.40
2022-11-15T11:21:43.450Z,26.05
2022-11-15T11:24:26.400Z,27.55
2022-11-15T11:27:05.084Z,27.17
2022-11-15T11:29:52.976Z,27.73
2022-11-15T11:32:57.060Z,31.35
2022-11-15T11:35:28.318Z,28.38
2022-11-15T11:38:25.783Z,30.10
2022-11-15T11:41:00.116Z,29.45
2022-11-15T11:43:35.707Z,31.05
2022-11-15T11:46:14.321Z,29.73
2022-11-15T11:48:52.613Z,27.30
2022-11-15T11:51:31.870Z,26.50
2022-11-15T11:54:22.122Z,25.73
2022-11-15T11:56:49.668Z,27.40
2022-11-15T11:59:34.338Z,26.55
2022-11-15T12:02:13.064Z,24.73
2022-11-15T12:04:44.644Z,26.70
2022-11-15T12:07:29.031Z,24.75
2022-11-15T12:10:23.567Z,24.48
2022-11-15T12:13:11.058Z,24.75
2022-11-15T12:15:49.739Z,23.92
2022-11-15T12:18:17.385Z,24.00
2022-11-15T12:20:57.161Z,23.27
2022-11-15T12:24:05.321Z,24.45
2022-11-15T12:26:55.521Z,23.70
2022-11-15T12:29:32.542Z,24.25
2022-11-15T12:32:00.919Z,24.08
2022-11-15T12:34:57.797Z,22.92
2022-11-15T12:37:38.837Z,23.23
2022-11-15T12:40:08.255Z,28.98
2022-11-15T12:42:43.754Z,27.40
2022-11-15T12:45:35.683Z,25.80
2022-11-15T12:48:17.207Z,26.95
2022-11-15T12:50:55.490Z,24.40
2022-11-15T12:53:25.348Z,23.95
2022-11-15T12:56:07.127Z,24.92
2022-11-15T12:58:50.942Z,23.25
2022-11-15T13:01:36.151Z,23.73
2022-11-15T13:04:20.865Z,23.67
2022-11-15T13:06:48.420Z,23.67
2022-11-15T13:09:33.202Z,22.75
2022-11-15T13:12:02.801Z,24.42
2022-11-15T13:14:38.498Z,24.63
2022-11-15T13:17:20.038Z,27.52
2022-11-15T13:19:48.326Z,27.02
2022-11-15T13:22:33.951Z,30.95
2022-11-15T13:25:02.581Z,29.73
2022-11-15T13:27:29.887Z,22.60
2022-11-15T13:29:56.310Z,23.33
2022-11-15T13:32:23.129Z,22.52
2022-11-15T13:34:53.640Z,23.13
2022-11-15T13:37:23.152Z,22.38
2022-11-15T13:39:50.833Z,22.65
2022-11-15T13:42:19.583Z,20.75
2022-11-15T13:45:00.387Z,22.15
2022-11-15T13:47:28.648Z,22.83
2022-11-15T13:49:57.965Z,20.48
2022-11-15T13:52:29.038Z,21.17
2022-11-15T13:55:04.655Z,22.13
2022-11-15T13:57:41.171Z,19.67
2022-11-15T14:00:25.478Z,23.88
2022-11-15T14:02:52.563Z,22.98
2022-11-15T14:05:24.942Z,22.70
2022-11-15T14:08:14.278Z,23.23
2022-11-15T14:10:41.025Z,23.13
2022-11-15T14:13:27.916Z,24.08
2022-11-15T14:15:54.390Z,23.95
2022-11-15T14:18:48.222Z,24.55
2022-11-15T14:21:15.335Z,25.65
2022-11-15T14:23:42.577Z,24.52
2022-11-15T14:26:30.678Z,24.00
2022-11-15T14:28:57.447Z,24.60
2022-11-15T14:31:23.947Z,24.02
2022-11-15T14:33:50.472Z,25.45
2022-11-15T14:36:19.719Z,24.92
2022-11-15T14:38:47.057Z,24.60
2022-11-15T14:41:25.079Z,24.23
2022-11-15T14:43:52.858Z,23.92
2022-11-15T14:46:19.976Z,22.90
2022-11-15T14:48:46.625Z,23.00
2022-11-15T14:51:22.327Z,21.70
2022-11-15T14:53:49.564Z,21.92
2022-11-15T14:56:17.250Z,22.73
2022-11-15T14:58:43.749Z,21.60
2022-11-15T15:01:18.652Z,22.38
2022-11-15T15:03:45.159Z,21.85
2022-11-15T15:06:17.978Z,20.92
2022-11-15T15:08:46.566Z,21.52
2022-11-15T15:11:17.809Z,21.50
2022-11-15T15:13:44.475Z,22.08
2022-11-15T15:18:37.312Z,20.95
2022-11-15T15:21:07.940Z,21.02
2022-11-15T15:23:36.448Z,21.77
2022-11-15T15:26:02.955Z,21.42
2022-11-15T15:28:34.258Z,21.00
2022-11-15T15:31:01.807Z,20.92
2022-11-15T15:33:28.227Z,18.92
2022-11-15T15:35:54.721Z,22.20
2022-11-15T15:38:22.510Z,21.50
2022-11-15T15:40:51.551Z,19.50
2022-11-15T15:43:18.278Z,20.15
2022-11-15T15:45:45.995Z,19.13
2022-11-15T15:48:14.789Z,21.75
2022-11-15T15:50:43.686Z,20.20
2022-11-15T15:53:11.541Z,19.10
2022-11-15T15:55:38.562Z,19.90
2022-11-15T15:58:06.036Z,21.27
2022-11-15T16:00:34.560Z,21.58
2022-11-15T16:03:01.039Z,21.00
2022-11-15T16:05:27.496Z,20.98
2022-11-15T16:07:53.923Z,20.50
2022-11-15T16:10:28.833Z,21.50
2022-11-15T16:12:57.007Z,19.67
2022-11-15T16:15:26.287Z,20.55
2022-11-15T16:17:55.101Z,20.65
2022-11-15T16:20:50.349Z,21.38
2022-11-15T16:23:18.958Z,19.48
2022-11-15T16:25:46.905Z,18.67
2022-11-15T16:28:33.935Z,19.55
2022-11-15T16:31:06.824Z,18.25
2022-11-15T16:33:33.964Z,20.45
2022-11-15T16:36:01.092Z,18.48
2022-11-15T16:38:27.638Z,21.08
2022-11-15T16:40:54.167Z,20.65
2022-11-15T16:43:20.632Z,19.70
2022-11-15T16:45:47.149Z,20.90
2022-11-15T16:48:31.659Z,21.23
2022-11-15T16:50:59.491Z,23.33
2022-11-15T16:53:27.677Z,21.35
2022-11-15T16:55:55.609Z,22.42
2022-11-15T16:58:22.260Z,20.52
2022-11-15T17:00:55.489Z,23.55
2022-11-15T17:03:25.660Z,22.23
2022-11-15T17:05:52.538Z,22.17
2022-11-15T17:08:21.680Z,24.13
2022-11-15T17:10:48.113Z,24.42
2022-11-15T17:13:14.637Z,22.67
2022-11-15T17:15:41.179Z,22.35
2022-11-15T17:18:11.818Z,23.40
2022-11-15T17:20:38.227Z,22.67
2022-11-15T17:23:04.650Z,23.65
2022-11-15T17:25:31.053Z,24.48
2022-11-15T17:27:57.441Z,24.27
2022-11-15T17:30:23.856Z,24.95
2022-11-15T17:32:50.256Z,24.73
2022-11-15T17:35:16.733Z,27.17
2022-11-15T17:37:43.605Z,24.42
2022-11-15T17:40:10.739Z,26.58
2022-11-15T17:42:37.202Z,27.30
2022-11-15T17:45:08.397Z,29.48
2022-11-15T17:47:35.928Z,29.13
2022-11-15T17:50:02.459Z,27.75
2022-11-15T17:52:28.925Z,27.70
2022-11-15T17:54:55.316Z,28.40
2022-11-15T17:57:21.704Z,29.70
2022-11-15T17:59:48.991Z,29.83
2022-11-15T18:02:15.536Z,29.70
2022-11-15T18:04:42.039Z,30.67
2022-11-15T18:07:08.645Z,30.60
2022-11-15T18:09:35.076Z,30.27
2022-11-15T18:12:01.502Z,29.38
2022-11-15T18:14:27.935Z,29.23
2022-11-15T18:16:54.994Z,31.02
2022-11-15T18:19:21.555Z,29.05
2022-11-15T18:21:56.916Z,30.27
2022-11-15T18:24:27.122Z,30.48
2022-11-15T18:26:53.625Z,29.20
2022-11-15T18:29:21.306Z,30.55
2022-11-15T18:31:50.246Z,29.40
2022-11-15T18:34:17.415Z,30.40
2022-11-15T18:36:43.992Z,29.75
2022-11-15T18:39:16.194Z,28.13
2022-11-15T18:41:44.581Z,29.80
2022-11-15T18:44:10.983Z,29.75
2022-11-15T18:46:39.116Z,31.40
2022-11-15T18:49:07.686Z,30.70
2022-11-15T18:51:36.453Z,30.27
2022-11-15T18:54:03.842Z,29.13
2022-11-15T18:56:32.062Z,29.17
2022-11-15T18:59:00.602Z,30.20
2022-11-15T19:01:34.362Z,29.92
2022-11-15T19:04:08.304Z,31.90
2022-11-15T19:06:39.015Z,30.00
2022-11-15T19:09:06.186Z,30.37
2022-11-15T19:11:35.832Z,32.30
2022-11-15T19:14:07.720Z,33.05
2022-11-15T19:16:36.729Z,32.50
2022-11-15T19:19:06.386Z,30.58
2022-11-15T19:21:32.914Z,32.50
2022-11-15T19:24:00.234Z,33.83
2022-11-15T19:26:27.703Z,31.55
2022-11-15T19:28:56.192Z,30.77
2022-11-15T19:31:24.342Z,30.95
2022-11-15T19:33:52.660Z,30.95
2022-11-15T19:36:20.625Z,31.73
2022-11-15T19:38:47.424Z,30.58
2022-11-15T19:41:19.720Z,28.63
2022-11-15T19:43:50.866Z,30.90
2022-11-15T19:46:20.281Z,30.70
2022-11-15T19:48:47.779Z,29.55
2022-11-15T19:51:16.712Z,29.05
2022-11-15T19:53:43.443Z,29.15
2022-11-15T19:56:16.201Z,30.05
2022-11-15T19:58:43.787Z,28.20
2022-11-15T20:01:20.571Z,28.50
2022-11-15T20:03:48.257Z,29.15
2022-11-15T20:06:17.397Z,29.65
2022-11-15T20:08:45.327Z,28.60
2022-11-15T20:11:12.733Z,29.05
2022-11-15T20:13:39.942Z,26.90
2022-11-15T20:16:06.996Z,28.98
2022-11-15T20:18:34.614Z,29.55
2022-11-15T20:21:02.653Z,28.55
2022-11-15T20:23:29.133Z,28.85
2022-11-15T20:25:55.716Z,28.10
2022-11-15T20:28:26.965Z,28.58
2022-11-15T20:30:56.341Z,30.80
2022-11-15T20:33:23.472Z,27.45
2022-11-15T20:35:50.263Z,29.33
2022-11-15T20:38:17.302Z,29.48
2022-11-15T20:40:48.274Z,28.35
2022-11-15T20:43:17.134Z,29.20
2022-11-15T20:45:45.430Z,29.55
2022-11-15T20:48:13.882Z,29.70
2022-11-15T20:50:43.245Z,28.90
2022-11-15T20:53:12.092Z,29.80
2022-11-15T20:55:43.350Z,29.05
2022-11-15T20:58:10.838Z,30.42
2022-11-15T21:00:38.019Z,30.77
2022-11-15T21:03:08.952Z,29.85
2022-11-15T21:05:39.205Z,29.95
2022-11-15T21:08:06.157Z,31.65
2022-11-15T21:10:51.472Z,32.72
2022-11-15T21:13:18.270Z,31.73
2022-11-15T21:15:44.721Z,31.23
2022-11-15T21:18:11.221Z,30.95
2022-11-15T21:20:37.719Z,29.58
2022-11-15T21:23:04.170Z,29.92
2022-11-15T21:25:30.603Z,30.27
2022-11-15T21:27:57.022Z,30.85
2022-11-15T21:30:23.690Z,29.40
2022-11-15T21:32:50.232Z,29.27
2022-11-15T21:35:16.776Z,28.05
2022-11-15T21:37:43.217Z,28.65
2022-11-15T21:40:10.328Z,28.70
2022-11-15T21:42:36.767Z,31.23
2022-11-15T21:45:03.639Z,28.77
2022-11-15T21:47:30.062Z,27.75
2022-11-15T21:49:56.482Z,28.15
2022-11-15T21:52:22.881Z,28.83
2022-11-15T21:54:49.331Z,28.23
2022-11-15T21:57:15.772Z,28.50
2022-11-15T22:00:02.205Z,27.13
2022-11-15T22:02:28.638Z,27.17
2022-11-15T22:04:55.077Z,27.38
2022-11-15T22:07:21.605Z,28.13
2022-11-15T22:09:48.111Z,26.35
2022-11-15T22:12:14.520Z,25.90
2022-11-15T22:14:40.960Z,27.90
2022-11-15T22:17:13.248Z,27.27
2022-11-15T22:19:51.915Z,26.20
2022-11-15T22:22:19.030Z,27.80
2022-11-15T22:24:45.498Z,26.70
2022-11-15T22:27:11.939Z,24.40
2022-11-15T22:29:38.415Z,25.63
2022-11-15T22:32:04.859Z,25.73
2022-11-15T22:34:31.310Z,26.02
2022-11-15T22:39:44.251Z,26.80
2022-11-15T22:42:10.761Z,25.95
2022-11-15T22:44:37.213Z,25.33
2022-11-15T22:47:03.681Z,26.83
2022-11-15T22:49:30.163Z,25.35
2022-11-15T22:51:56.647Z,27.15
2022-11-15T22:54:23.151Z,26.65
2022-11-15T22:56:49.662Z,25.23
2022-11-15T22:59:16.122Z,28.23
2022-11-15T23:01:42.940Z,26.83
2022-11-15T23:04:09.472Z,27.98
2022-11-15T23:06:35.986Z,27.27
2022-11-15T23:09:02.450Z,26.67
2022-11-15T23:11:47.594Z,27.92
2022-11-15T23:14:14.080Z,28.17
2022-11-15T23:16:40.608Z,29.83
2022-11-15T23:19:10.055Z,27.98
2022-11-15T23:21:58.072Z,29.15
2022-11-15T23:24:24.897Z,28.48
2022-11-15T23:27:00.006Z,27.00
2022-11-15T23:29:28.285Z,28.13
2022-11-15T23:32:14.219Z,27.42
2022-11-15T23:34:43.042Z,27.38
2022-11-15T23:37:12.040Z,29.40
2022-11-15T23:39:38.501Z,28.17
2022-11-15T23:42:09.001Z,29.85
2022-11-15T23:44:36.200Z,28.13
2022-11-15T23:47:02.655Z,29.85
2022-11-15T23:49:29.131Z,29.55
2022-11-15T23:51:55.686Z,28.60
2022-11-15T23:54:22.198Z,26.65
2022-11-15T23:56:48.725Z,26.45
2022-11-15T23:59:15.255Z,29.45
